createdAt,value
2017-09-14T15:34:21.723Z,99417.38
2017-09-14T15:36:49.649Z,99424.41
2017-09-14T15:39:23.889Z,99414.95
2017-09-14T15:41:51.860Z,99420.75
2017-09-14T15:44:25.981Z,99437.33
2017-09-14T15:46:55.137Z,99437.28
2017-09-14T15:49:29.905Z,99439.58
2017-09-14T15:51:58.182Z,99456.42
2017-09-14T15:54:26.561Z,99445.28
2017-09-14T15:56:54.764Z,99453.38
2017-09-14T15:59:23.373Z,99452.63
2017-09-14T16:01:51.402Z,99451.97
2017-09-14T16:04:20.135Z,99455.12
2017-09-14T16:06:48.580Z,99465.70
2017-09-14T16:09:17.019Z,99457.47
2017-09-14T16:11:44.915Z,99468.63
2017-09-14T16:14:12.851Z,99466.02
2017-09-14T16:16:40.764Z,99458.94
2017-09-14T16:19:08.675Z,99465.17
2017-09-14T16:21:36.984Z,99463.38
2017-09-14T16:24:04.892Z,99470.69
2017-09-14T16:26:32.809Z,99469.05
2017-09-14T16:29:00.710Z,99471.78
2017-09-14T16:31:28.653Z,99469.09
2017-09-14T16:33:56.631Z,99471.88
2017-09-14T16:36:24.532Z,99477.98
2017-09-14T16:38:52.514Z,99469.69
2017-09-14T16:41:20.428Z,99464.61
2017-09-14T16:43:48.335Z,99472.97
2017-09-14T16:46:16.255Z,99483.81
2017-09-14T16:48:44.159Z,99489.11
2017-09-14T16:51:12.054Z,99486.48
2017-09-14T16:53:39.999Z,99486.92
2017-09-14T16:56:07.943Z,99489.22
2017-09-14T16:58:36.257Z,99489.66
2017-09-14T17:01:04.172Z,99492.25
2017-09-14T17:03:32.072Z,99497.61
2017-09-14T17:06:00.008Z,99498.48
2017-09-14T17:08:27.983Z,99504.25
2017-09-14T17:10:56.116Z,99502.52
2017-09-14T17:13:24.099Z,99504.69
2017-09-14T17:15:52.705Z,99505.64
2017-09-14T17:18:20.769Z,99507.48
2017-09-14T17:20:48.877Z,99510.92
2017-09-14T17:23:16.835Z,99505.34
2017-09-14T17:25:44.743Z,99504.54
2017-09-14T17:28:12.701Z,99510.34
2017-09-14T17:30:40.761Z,99512.50
2017-09-14T17:33:08.861Z,99516.89
2017-09-14T17:35:36.879Z,99513.48
2017-09-14T17:38:05.161Z,99523.98
2017-09-14T17:40:33.066Z,99521.49
2017-09-14T17:43:00.956Z,99521.52
2017-09-14T17:45:29.486Z,99530.73
2017-09-14T17:47:57.791Z,99532.02
2017-09-14T17:50:27.143Z,99539.95
2017-09-14T17:52:55.521Z,99543.80
2017-09-14T17:55:23.764Z,99550.86
2017-09-14T17:57:52.017Z,99557.03
2017-09-14T18:00:20.538Z,99561.00
2017-09-14T18:02:48.698Z,99560.56
2017-09-14T18:05:16.753Z,99571.51
2017-09-14T18:07:45.248Z,99568.92
2017-09-14T18:10:13.290Z,99573.27
2017-09-14T18:12:41.224Z,99582.01
2017-09-14T18:15:09.149Z,99586.44
2017-09-14T18:17:37.441Z,99581.20
2017-09-14T18:20:05.403Z,99583.39
2017-09-14T18:22:33.304Z,99586.34
2017-09-14T18:25:01.212Z,99590.80
2017-09-14T18:27:29.119Z,99597.75
2017-09-14T18:29:57.019Z,99600.80
2017-09-14T18:32:24.923Z,99604.29
2017-09-14T18:34:53.220Z,99602.57
2017-09-14T18:37:21.143Z,99604.41
2017-09-14T18:39:49.108Z,99611.36
2017-09-14T18:42:17.086Z,99614.00
2017-09-14T18:44:45.042Z,99612.67
2017-09-14T18:47:12.959Z,99616.62
2017-09-14T18:49:40.947Z,99627.06
2017-09-14T18:52:08.855Z,99635.33
2017-09-14T18:54:36.761Z,99633.59
2017-09-14T18:57:05.063Z,99631.02
2017-09-14T18:59:32.984Z,99632.38
2017-09-14T19:02:00.881Z,99629.77
2017-09-14T19:04:28.767Z,99629.34
2017-09-14T19:06:56.687Z,99636.34
2017-09-14T19:09:24.625Z,99631.54
2017-09-14T19:11:52.669Z,99626.32
2017-09-14T19:14:20.770Z,99628.05
2017-09-14T19:16:48.811Z,99626.28
2017-09-14T19:19:16.863Z,99627.17
2017-09-14T19:21:44.835Z,99625.02
2017-09-14T19:24:12.873Z,99631.55
2017-09-14T19:26:41.026Z,99626.74
2017-09-14T19:29:09.407Z,99624.55
2017-09-14T19:31:37.376Z,99617.52
2017-09-14T19:34:05.290Z,99629.25
2017-09-14T19:36:33.203Z,99624.88
2017-09-14T19:39:01.174Z,99633.94
2017-09-14T19:41:29.091Z,99642.65
2017-09-14T19:43:57.383Z,99634.78
2017-09-14T19:46:25.396Z,99638.17
2017-09-14T19:48:53.376Z,99634.62
2017-09-14T19:51:21.275Z,99632.73
2017-09-14T19:53:49.200Z,99637.09
2017-09-14T19:56:17.333Z,99634.01
2017-09-14T19:58:45.243Z,99636.11
2017-09-14T20:01:13.143Z,99635.23
2017-09-14T20:03:41.444Z,99640.83
2017-09-14T20:06:09.349Z,99632.54
2017-09-14T20:08:40.889Z,99639.90
2017-09-14T20:11:08.832Z,99637.72
2017-09-14T20:13:36.728Z,99621.52
2017-09-14T20:16:04.627Z,99640.23
2017-09-14T20:18:32.571Z,99634.09
2017-09-14T20:21:00.534Z,99626.66
2017-09-14T20:23:28.441Z,99639.31
2017-09-14T20:25:56.751Z,99627.45
2017-09-14T20:28:24.671Z,99635.81
2017-09-14T20:30:52.575Z,99632.23
2017-09-14T20:33:20.487Z,99635.22
2017-09-14T20:35:48.407Z,99644.95
2017-09-14T20:38:16.307Z,99647.47
2017-09-14T20:40:44.225Z,99649.30
2017-09-14T20:43:12.567Z,99649.76
2017-09-14T20:45:40.473Z,99648.01
2017-09-14T20:48:08.380Z,99651.92
2017-09-14T20:50:36.383Z,99654.45
2017-09-14T20:53:04.299Z,99657.93
2017-09-14T20:55:32.223Z,99662.21
2017-09-14T20:58:00.195Z,99650.06
2017-09-14T21:00:28.263Z,99649.48
2017-09-14T21:02:56.188Z,99646.95
2017-09-14T21:05:24.097Z,99649.05
2017-09-14T21:07:52.068Z,99643.02
2017-09-14T21:10:19.985Z,99651.20
2017-09-14T21:12:47.890Z,99652.55
2017-09-14T21:15:15.803Z,99655.59
2017-09-14T21:17:43.703Z,99651.69
2017-09-14T21:20:11.607Z,99649.16
2017-09-14T21:22:39.523Z,99645.13
2017-09-14T21:25:07.446Z,99645.59
2017-09-14T21:27:35.352Z,99649.16
2017-09-14T21:30:03.372Z,99637.86
2017-09-14T21:32:31.351Z,99643.97
2017-09-14T21:34:59.302Z,99645.73
2017-09-14T21:37:27.207Z,99644.95
2017-09-14T21:39:55.502Z,99648.48
2017-09-14T21:42:23.423Z,99653.70
2017-09-14T21:44:51.339Z,99638.89
2017-09-14T21:47:19.361Z,99651.97
2017-09-14T21:49:47.254Z,99644.11
2017-09-14T21:52:15.559Z,99648.10
2017-09-14T21:54:43.479Z,99647.38
2017-09-14T21:57:11.374Z,99657.37
2017-09-14T21:59:39.262Z,99658.70
2017-09-14T22:02:07.267Z,99650.98
2017-09-14T22:04:35.160Z,99660.19
2017-09-14T22:07:03.490Z,99658.89
2017-09-14T22:09:31.440Z,99655.36
2017-09-14T22:11:59.335Z,99665.84
2017-09-14T22:14:27.256Z,99661.44
2017-09-14T22:16:55.628Z,99664.89
2017-09-14T22:19:23.928Z,99662.61
2017-09-14T22:21:52.035Z,99666.53
2017-09-14T22:24:19.951Z,99670.86
2017-09-14T22:26:47.936Z,99685.64
2017-09-14T22:29:15.835Z,99681.23
2017-09-14T22:31:43.752Z,99683.47
2017-09-14T22:34:12.091Z,99686.42
2017-09-14T22:36:39.998Z,99687.73
2017-09-14T22:39:08.299Z,99697.45
2017-09-14T22:41:36.301Z,99699.26
2017-09-14T22:44:04.206Z,99707.21
2017-09-14T22:46:32.543Z,99707.25
2017-09-14T22:49:00.621Z,99717.75
2017-09-14T22:51:28.525Z,99717.75
2017-09-14T22:53:56.862Z,99727.41
2017-09-14T22:56:24.771Z,99716.55
2017-09-14T22:58:53.110Z,99729.59
2017-09-14T23:01:21.042Z,99726.16
2017-09-14T23:03:49.051Z,99720.06
2017-09-14T23:06:16.987Z,99723.09
2017-09-14T23:08:44.883Z,99721.81
2017-09-14T23:11:12.794Z,99737.50
2017-09-14T23:13:40.856Z,99736.70
2017-09-14T23:16:09.142Z,99740.16
2017-09-14T23:18:37.064Z,99740.08
2017-09-14T23:21:04.971Z,99735.69
2017-09-14T23:23:33.268Z,99747.94
2017-09-14T23:26:01.308Z,99751.86
2017-09-14T23:28:29.606Z,99752.79
2017-09-14T23:30:57.583Z,99760.58
2017-09-14T23:33:25.500Z,99767.98
2017-09-14T23:35:53.413Z,99771.02
2017-09-14T23:38:21.323Z,99768.84
2017-09-14T23:40:49.303Z,99774.95
2017-09-14T23:43:17.214Z,99781.03
2017-09-14T23:45:45.339Z,99779.30
2017-09-14T23:48:13.240Z,99782.39
2017-09-14T23:50:41.530Z,99794.11
2017-09-14T23:53:09.461Z,99791.06
2017-09-14T23:55:37.368Z,99798.47
2017-09-14T23:58:05.271Z,99795.84
